sensor_id;sensor_type;location;lat;lon;timestamp;temperature;humidity
65046;DHT22;54657;52.022;5.534;2023-11-19T00:01:33;14.30;99.90
65046;DHT22;54657;52.022;5.534;2023-11-19T00:03:58;14.40;99.90
65046;DHT22;54657;52.022;5.534;2023-11-19T00:06:24;14.30;99.90
65046;DHT22;54657;52.022;5.534;2023-11-19T00:08:50;14.30;99.90
65046;DHT22;54657;52.022;5.534;2023-11-19T00:11:16;14.30;99.90
65046;DHT22;54657;52.022;5.534;2023-11-19T00:13:42;14.30;99.90
65046;DHT22;54657;52.022;5.534;2023-11-19T00:16:08;14.30;99.90
65046;DHT22;54657;52.022;5.534;2023-11-19T00:18:35;14.30;99.90
65046;DHT22;54657;52.022;5.534;2023-11-19T00:21:01;14.30;99.90
65046;DHT22;54657;52.022;5.534;2023-11-19T00:23:27;14.40;99.90
65046;DHT22;54657;52.022;5.534;2023-11-19T00:25:53;14.40;99.90
65046;DHT22;54657;52.022;5.534;2023-11-19T00:28:19;14.40;99.90
65046;DHT22;54657;52.022;5.534;2023-11-19T00:30:44;14.30;99.90
65046;DHT22;54657;52.022;5.534;2023-11-19T00:33:10;14.30;99.90
65046;DHT22;54657;52.022;5.534;2023-11-19T00:35:35;14.40;99.90
65046;DHT22;54657;52.022;5.534;2023-11-19T00:38:01;14.40;99.90
65046;DHT22;54657;52.022;5.534;2023-11-19T00:40:28;14.40;99.90
65046;DHT22;54657;52.022;5.534;2023-11-19T00:42:54;14.30;99.90
65046;DHT22;54657;52.022;5.534;2023-11-19T00:45:19;14.40;99.90
65046;DHT22;54657;52.022;5.534;2023-11-19T00:47:45;14.30;99.90
65046;DHT22;54657;52.022;5.534;2023-11-19T00:50:11;14.40;99.90
65046;DHT22;54657;52.022;5.534;2023-11-19T00:52:37;14.30;99.90
65046;DHT22;54657;52.022;5.534;2023-11-19T00:55:03;14.30;99.90
65046;DHT22;54657;52.022;5.534;2023-11-19T00:57:30;14.30;99.90
65046;DHT22;54657;52.022;5.534;2023-11-19T00:59:58;14.30;99.90
65046;DHT22;54657;52.022;5.534;2023-11-19T01:02:24;14.30;99.90
65046;DHT22;54657;52.022;5.534;2023-11-19T01:04:50;14.30;99.90
65046;DHT22;54657;52.022;5.534;2023-11-19T01:07:15;14.30;99.90
65046;DHT22;54657;52.022;5.534;2023-11-19T01:09:44;14.30;99.90
65046;DHT22;54657;52.022;5.534;2023-11-19T01:12:10;14.30;99.90
65046;DHT22;54657;52.022;5.534;2023-11-19T01:14:36;14.30;99.90
65046;DHT22;54657;52.022;5.534;2023-11-19T01:17:01;14.20;99.90
65046;DHT22;54657;52.022;5.534;2023-11-19T01:19:27;14.30;99.90
65046;DHT22;54657;52.022;5.534;2023-11-19T01:21:54;14.30;99.90
65046;DHT22;54657;52.022;5.534;2023-11-19T01:24:20;14.30;99.90
65046;DHT22;54657;52.022;5.534;2023-11-19T01:26:46;14.20;99.90
65046;DHT22;54657;52.022;5.534;2023-11-19T01:29:12;14.30;99.90
65046;DHT22;54657;52.022;5.534;2023-11-19T01:31:42;14.30;99.90
65046;DHT22;54657;52.022;5.534;2023-11-19T01:34:09;14.30;99.90
65046;DHT22;54657;52.022;5.534;2023-11-19T01:36:35;14.30;99.90
65046;DHT22;54657;52.022;5.534;2023-11-19T01:39:01;14.30;99.90
65046;DHT22;54657;52.022;5.534;2023-11-19T01:41:27;14.30;99.90
65046;DHT22;54657;52.022;5.534;2023-11-19T01:43:52;14.20;99.90
65046;DHT22;54657;52.022;5.534;2023-11-19T01:46:18;14.30;99.90
65046;DHT22;54657;52.022;5.534;2023-11-19T01:48:45;14.30;99.90
65046;DHT22;54657;52.022;5.534;2023-11-19T01:51:12;14.30;99.90
65046;DHT22;54657;52.022;5.534;2023-11-19T01:53:38;14.30;99.90
65046;DHT22;54657;52.022;5.534;2023-11-19T01:56:08;14.30;99.90
65046;DHT22;54657;52.022;5.534;2023-11-19T01:58:38;14.20;99.90
65046;DHT22;54657;52.022;5.534;2023-11-19T02:01:06;14.20;99.90
65046;DHT22;54657;52.022;5.534;2023-11-19T02:03:32;14.20;99.90
65046;DHT22;54657;52.022;5.534;2023-11-19T02:06:02;14.20;99.90
65046;DHT22;54657;52.022;5.534;2023-11-19T02:08:29;14.20;99.90
65046;DHT22;54657;52.022;5.534;2023-11-19T02:10:55;14.20;99.90
65046;DHT22;54657;52.022;5.534;2023-11-19T02:13:24;14.20;99.90
65046;DHT22;54657;52.022;5.534;2023-11-19T02:15:50;14.20;99.90
65046;DHT22;54657;52.022;5.534;2023-11-19T02:20:45;14.20;99.90
65046;DHT22;54657;52.022;5.534;2023-11-19T02:23:12;14.10;99.90
65046;DHT22;54657;52.022;5.534;2023-11-19T02:25:38;14.10;99.90
65046;DHT22;54657;52.022;5.534;2023-11-19T02:28:06;14.10;99.90
65046;DHT22;54657;52.022;5.534;2023-11-19T02:30:31;14.00;99.90
65046;DHT22;54657;52.022;5.534;2023-11-19T02:33:00;14.00;99.90
65046;DHT22;54657;52.022;5.534;2023-11-19T02:35:31;14.00;99.90
65046;DHT22;54657;52.022;5.534;2023-11-19T02:37:57;14.00;99.90
65046;DHT22;54657;52.022;5.534;2023-11-19T02:40:23;14.00;99.90
65046;DHT22;54657;52.022;5.534;2023-11-19T02:42:50;13.90;99.90
65046;DHT22;54657;52.022;5.534;2023-11-19T02:45:15;13.90;99.90
65046;DHT22;54657;52.022;5.534;2023-11-19T02:47:41;13.90;99.90
65046;DHT22;54657;52.022;5.534;2023-11-19T02:50:08;13.90;99.90
65046;DHT22;54657;52.022;5.534;2023-11-19T02:52:45;13.80;99.90
65046;DHT22;54657;52.022;5.534;2023-11-19T02:55:12;13.80;99.90
65046;DHT22;54657;52.022;5.534;2023-11-19T02:57:38;13.80;99.90
65046;DHT22;54657;52.022;5.534;2023-11-19T03:00:15;13.80;99.90
65046;DHT22;54657;52.022;5.534;2023-11-19T03:02:41;13.70;99.90
65046;DHT22;54657;52.022;5.534;2023-11-19T03:05:14;13.70;99.90
65046;DHT22;54657;52.022;5.534;2023-11-19T03:07:42;13.70;99.90
65046;DHT22;54657;52.022;5.534;2023-11-19T03:10:09;13.60;99.90
65046;DHT22;54657;52.022;5.534;2023-11-19T03:12:38;13.60;99.90
65046;DHT22;54657;52.022;5.534;2023-11-19T03:15:04;13.60;99.90
65046;DHT22;54657;52.022;5.534;2023-11-19T03:17:30;13.60;99.90
65046;DHT22;54657;52.022;5.534;2023-11-19T03:19:55;13.50;99.90
65046;DHT22;54657;52.022;5.534;2023-11-19T03:22:21;13.50;99.90
65046;DHT22;54657;52.022;5.534;2023-11-19T03:24:46;13.50;99.90
65046;DHT22;54657;52.022;5.534;2023-11-19T03:27:12;13.50;99.90
65046;DHT22;54657;52.022;5.534;2023-11-19T03:29:37;13.50;99.90
65046;DHT22;54657;52.022;5.534;2023-11-19T03:32:04;13.50;99.90
65046;DHT22;54657;52.022;5.534;2023-11-19T03:34:30;13.40;99.90
65046;DHT22;54657;52.022;5.534;2023-11-19T03:36:55;13.40;99.90
65046;DHT22;54657;52.022;5.534;2023-11-19T03:39:22;13.40;99.90
65046;DHT22;54657;52.022;5.534;2023-11-19T03:41:50;13.30;99.90
65046;DHT22;54657;52.022;5.534;2023-11-19T03:44:16;13.30;99.90
65046;DHT22;54657;52.022;5.534;2023-11-19T03:46:42;13.30;99.90
65046;DHT22;54657;52.022;5.534;2023-11-19T03:49:07;13.20;99.90
65046;DHT22;54657;52.022;5.534;2023-11-19T03:51:33;13.10;99.90
65046;DHT22;54657;52.022;5.534;2023-11-19T03:54:00;13.20;99.90
65046;DHT22;54657;52.022;5.534;2023-11-19T03:56:26;13.10;99.90
65046;DHT22;54657;52.022;5.534;2023-11-19T03:58:52;13.10;99.90
65046;DHT22;54657;52.022;5.534;2023-11-19T04:01:18;13.10;99.90
65046;DHT22;54657;52.022;5.534;2023-11-19T04:03:43;13.10;99.90
65046;DHT22;54657;52.022;5.534;2023-11-19T04:06:09;13.00;99.90
65046;DHT22;54657;52.022;5.534;2023-11-19T04:08:35;13.00;99.90
65046;DHT22;54657;52.022;5.534;2023-11-19T04:11:02;13.00;99.90
65046;DHT22;54657;52.022;5.534;2023-11-19T04:13:28;12.90;99.90
65046;DHT22;54657;52.022;5.534;2023-11-19T04:15:53;12.90;99.90
65046;DHT22;54657;52.022;5.534;2023-11-19T04:18:19;12.90;99.90
65046;DHT22;54657;52.022;5.534;2023-11-19T04:20:44;12.90;99.90
65046;DHT22;54657;52.022;5.534;2023-11-19T04:23:10;12.90;99.90
65046;DHT22;54657;52.022;5.534;2023-11-19T04:25:36;12.80;99.90
65046;DHT22;54657;52.022;5.534;2023-11-19T04:28:02;12.90;99.90
65046;DHT22;54657;52.022;5.534;2023-11-19T04:30:28;12.80;99.90
65046;DHT22;54657;52.022;5.534;2023-11-19T04:32:54;12.80;99.90
65046;DHT22;54657;52.022;5.534;2023-11-19T04:35:19;12.80;99.90
65046;DHT22;54657;52.022;5.534;2023-11-19T04:37:45;12.80;99.90
65046;DHT22;54657;52.022;5.534;2023-11-19T04:40:11;12.80;99.90
65046;DHT22;54657;52.022;5.534;2023-11-19T04:42:37;12.80;99.90
65046;DHT22;54657;52.022;5.534;2023-11-19T04:45:06;12.80;99.90
65046;DHT22;54657;52.022;5.534;2023-11-19T04:47:32;12.80;99.90
65046;DHT22;54657;52.022;5.534;2023-11-19T04:49:58;12.70;99.90
65046;DHT22;54657;52.022;5.534;2023-11-19T04:52:24;12.80;99.90
65046;DHT22;54657;52.022;5.534;2023-11-19T04:54:49;12.70;99.90
65046;DHT22;54657;52.022;5.534;2023-11-19T04:57:15;12.70;99.90
65046;DHT22;54657;52.022;5.534;2023-11-19T04:59:41;12.70;99.90
65046;DHT22;54657;52.022;5.534;2023-11-19T05:02:07;12.70;99.90
65046;DHT22;54657;52.022;5.534;2023-11-19T05:04:33;12.70;99.90
65046;DHT22;54657;52.022;5.534;2023-11-19T05:06:59;12.70;99.90
65046;DHT22;54657;52.022;5.534;2023-11-19T05:09:24;12.70;99.90
65046;DHT22;54657;52.022;5.534;2023-11-19T05:11:50;12.60;99.90
65046;DHT22;54657;52.022;5.534;2023-11-19T05:14:16;12.60;99.90
65046;DHT22;54657;52.022;5.534;2023-11-19T05:16:42;12.60;99.90
65046;DHT22;54657;52.022;5.534;2023-11-19T05:19:08;12.60;99.90
65046;DHT22;54657;52.022;5.534;2023-11-19T05:21:34;12.60;99.90
65046;DHT22;54657;52.022;5.534;2023-11-19T05:24:04;12.60;99.90
65046;DHT22;54657;52.022;5.534;2023-11-19T05:26:30;12.60;99.90
65046;DHT22;54657;52.022;5.534;2023-11-19T05:28:55;12.60;99.90
65046;DHT22;54657;52.022;5.534;2023-11-19T05:31:21;12.60;99.90
65046;DHT22;54657;52.022;5.534;2023-11-19T05:33:46;12.60;99.90
65046;DHT22;54657;52.022;5.534;2023-11-19T05:36:13;12.50;99.90
65046;DHT22;54657;52.022;5.534;2023-11-19T05:38:39;12.50;99.90
65046;DHT22;54657;52.022;5.534;2023-11-19T05:41:05;12.50;99.90
65046;DHT22;54657;52.022;5.534;2023-11-19T05:43:31;12.50;99.90
65046;DHT22;54657;52.022;5.534;2023-11-19T05:45:56;12.50;99.90
65046;DHT22;54657;52.022;5.534;2023-11-19T05:48:22;12.50;99.90
65046;DHT22;54657;52.022;5.534;2023-11-19T05:50:48;12.50;99.90
65046;DHT22;54657;52.022;5.534;2023-11-19T05:53:15;12.50;99.90
65046;DHT22;54657;52.022;5.534;2023-11-19T05:55:41;12.50;99.90
65046;DHT22;54657;52.022;5.534;2023-11-19T05:58:12;12.50;99.90
65046;DHT22;54657;52.022;5.534;2023-11-19T06:00:38;12.60;99.90
65046;DHT22;54657;52.022;5.534;2023-11-19T06:03:04;12.60;99.90
65046;DHT22;54657;52.022;5.534;2023-11-19T06:05:30;12.60;99.90
65046;DHT22;54657;52.022;5.534;2023-11-19T06:07:55;12.50;99.90
65046;DHT22;54657;52.022;5.534;2023-11-19T06:10:22;12.60;99.90
65046;DHT22;54657;52.022;5.534;2023-11-19T06:12:54;12.60;99.90
65046;DHT22;54657;52.022;5.534;2023-11-19T06:15:22;12.60;99.90
65046;DHT22;54657;52.022;5.534;2023-11-19T06:17:47;12.50;99.90
65046;DHT22;54657;52.022;5.534;2023-11-19T06:20:13;12.50;99.90
65046;DHT22;54657;52.022;5.534;2023-11-19T06:22:39;12.50;99.90
65046;DHT22;54657;52.022;5.534;2023-11-19T06:25:08;12.50;99.90
65046;DHT22;54657;52.022;5.534;2023-11-19T06:27:33;12.50;99.90
65046;DHT22;54657;52.022;5.534;2023-11-19T06:30:00;12.40;99.90
65046;DHT22;54657;52.022;5.534;2023-11-19T06:32:25;12.40;99.90
65046;DHT22;54657;52.022;5.534;2023-11-19T06:34:51;12.40;99.90
65046;DHT22;54657;52.022;5.534;2023-11-19T06:37:16;12.40;99.90
65046;DHT22;54657;52.022;5.534;2023-11-19T06:39:42;12.40;99.90
65046;DHT22;54657;52.022;5.534;2023-11-19T06:42:07;12.40;99.90
65046;DHT22;54657;52.022;5.534;2023-11-19T06:44:33;12.40;99.90
65046;DHT22;54657;52.022;5.534;2023-11-19T06:46:58;12.40;99.90
65046;DHT22;54657;52.022;5.534;2023-11-19T06:49:24;12.40;99.90
65046;DHT22;54657;52.022;5.534;2023-11-19T06:51:50;12.40;99.90
65046;DHT22;54657;52.022;5.534;2023-11-19T06:54:15;12.40;99.90
65046;DHT22;54657;52.022;5.534;2023-11-19T06:56:41;12.40;99.90
65046;DHT22;54657;52.022;5.534;2023-11-19T06:59:07;12.40;99.90
65046;DHT22;54657;52.022;5.534;2023-11-19T07:01:36;12.40;99.90
65046;DHT22;54657;52.022;5.534;2023-11-19T07:04:03;12.40;99.90
65046;DHT22;54657;52.022;5.534;2023-11-19T07:06:34;12.40;99.90
65046;DHT22;54657;52.022;5.534;2023-11-19T07:09:01;12.40;99.90
65046;DHT22;54657;52.022;5.534;2023-11-19T07:11:38;12.40;99.90
65046;DHT22;54657;52.022;5.534;2023-11-19T07:14:05;12.40;99.90
65046;DHT22;54657;52.022;5.534;2023-11-19T07:16:32;12.40;99.90
65046;DHT22;54657;52.022;5.534;2023-11-19T07:18:58;12.50;99.90
65046;DHT22;54657;52.022;5.534;2023-11-19T07:21:25;12.50;99.90
65046;DHT22;54657;52.022;5.534;2023-11-19T07:23:51;12.50;99.90
65046;DHT22;54657;52.022;5.534;2023-11-19T07:26:17;12.50;99.90
65046;DHT22;54657;52.022;5.534;2023-11-19T07:28:42;12.50;99.90
65046;DHT22;54657;52.022;5.534;2023-11-19T07:31:10;12.50;99.90
65046;DHT22;54657;52.022;5.534;2023-11-19T07:33:36;12.50;99.90
65046;DHT22;54657;52.022;5.534;2023-11-19T07:36:02;12.50;99.90
65046;DHT22;54657;52.022;5.534;2023-11-19T07:38:27;12.50;99.90
65046;DHT22;54657;52.022;5.534;2023-11-19T07:40:53;12.50;99.90
65046;DHT22;54657;52.022;5.534;2023-11-19T07:43:19;12.50;99.90
65046;DHT22;54657;52.022;5.534;2023-11-19T07:45:44;12.60;99.90
65046;DHT22;54657;52.022;5.534;2023-11-19T07:48:11;12.60;99.90
65046;DHT22;54657;52.022;5.534;2023-11-19T07:50:39;12.60;99.90
65046;DHT22;54657;52.022;5.534;2023-11-19T07:53:06;12.60;99.90
65046;DHT22;54657;52.022;5.534;2023-11-19T07:55:33;12.60;99.90
65046;DHT22;54657;52.022;5.534;2023-11-19T07:57:58;12.60;99.90
65046;DHT22;54657;52.022;5.534;2023-11-19T08:00:24;12.60;99.90
65046;DHT22;54657;52.022;5.534;2023-11-19T08:02:49;12.60;99.90
65046;DHT22;54657;52.022;5.534;2023-11-19T08:05:15;12.60;99.90
65046;DHT22;54657;52.022;5.534;2023-11-19T08:07:41;12.60;99.90
65046;DHT22;54657;52.022;5.534;2023-11-19T08:10:07;12.60;99.90
65046;DHT22;54657;52.022;5.534;2023-11-19T08:12:35;12.60;99.90
65046;DHT22;54657;52.022;5.534;2023-11-19T08:15:02;12.70;99.90
65046;DHT22;54657;52.022;5.534;2023-11-19T08:17:28;12.70;99.90
65046;DHT22;54657;52.022;5.534;2023-11-19T08:19:53;12.70;99.90
65046;DHT22;54657;52.022;5.534;2023-11-19T08:22:19;12.70;99.90
65046;DHT22;54657;52.022;5.534;2023-11-19T08:24:44;12.70;99.90
65046;DHT22;54657;52.022;5.534;2023-11-19T08:27:10;12.70;99.90
65046;DHT22;54657;52.022;5.534;2023-11-19T08:29:35;12.70;99.90
65046;DHT22;54657;52.022;5.534;2023-11-19T08:32:01;12.70;99.90
65046;DHT22;54657;52.022;5.534;2023-11-19T08:34:28;12.80;99.90
65046;DHT22;54657;52.022;5.534;2023-11-19T08:36:54;12.80;99.90
65046;DHT22;54657;52.022;5.534;2023-11-19T08:39:20;12.80;99.90
65046;DHT22;54657;52.022;5.534;2023-11-19T08:41:49;12.80;99.90
65046;DHT22;54657;52.022;5.534;2023-11-19T08:44:16;12.80;99.90
65046;DHT22;54657;52.022;5.534;2023-11-19T08:46:49;12.80;99.90
65046;DHT22;54657;52.022;5.534;2023-11-19T08:49:15;12.80;99.90
65046;DHT22;54657;52.022;5.534;2023-11-19T08:51:40;12.80;99.90
65046;DHT22;54657;52.022;5.534;2023-11-19T08:54:07;12.90;99.90
65046;DHT22;54657;52.022;5.534;2023-11-19T08:56:32;12.90;99.90
65046;DHT22;54657;52.022;5.534;2023-11-19T08:59:00;12.90;99.90
65046;DHT22;54657;52.022;5.534;2023-11-19T09:01:25;12.90;99.90
65046;DHT22;54657;52.022;5.534;2023-11-19T09:03:51;12.90;99.90
65046;DHT22;54657;52.022;5.534;2023-11-19T09:06:17;13.00;99.90
65046;DHT22;54657;52.022;5.534;2023-11-19T09:08:43;13.00;99.90
65046;DHT22;54657;52.022;5.534;2023-11-19T09:11:09;13.00;99.90
65046;DHT22;54657;52.022;5.534;2023-11-19T09:13:35;13.10;99.90
65046;DHT22;54657;52.022;5.534;2023-11-19T09:16:01;13.10;99.90
65046;DHT22;54657;52.022;5.534;2023-11-19T09:18:29;13.10;99.90
65046;DHT22;54657;52.022;5.534;2023-11-19T09:20:55;13.20;99.90
65046;DHT22;54657;52.022;5.534;2023-11-19T09:23:23;13.20;99.90
65046;DHT22;54657;52.022;5.534;2023-11-19T09:25:53;13.20;99.90
65046;DHT22;54657;52.022;5.534;2023-11-19T09:28:24;13.20;99.90
65046;DHT22;54657;52.022;5.534;2023-11-19T09:30:49;13.40;99.90
65046;DHT22;54657;52.022;5.534;2023-11-19T09:33:15;13.40;99.90
65046;DHT22;54657;52.022;5.534;2023-11-19T09:35:40;13.40;99.90
65046;DHT22;54657;52.022;5.534;2023-11-19T09:38:06;13.40;99.90
65046;DHT22;54657;52.022;5.534;2023-11-19T09:40:32;13.40;99.90
65046;DHT22;54657;52.022;5.534;2023-11-19T09:43:00;13.40;99.90
65046;DHT22;54657;52.022;5.534;2023-11-19T09:45:27;13.40;99.90
65046;DHT22;54657;52.022;5.534;2023-11-19T09:47:54;13.40;99.90
65046;DHT22;54657;52.022;5.534;2023-11-19T09:50:20;13.50;99.90
65046;DHT22;54657;52.022;5.534;2023-11-19T09:52:47;13.40;99.90
65046;DHT22;54657;52.022;5.534;2023-11-19T09:55:15;13.50;99.90
65046;DHT22;54657;52.022;5.534;2023-11-19T09:57:41;13.50;99.90
65046;DHT22;54657;52.022;5.534;2023-11-19T10:00:10;13.60;99.90
65046;DHT22;54657;52.022;5.534;2023-11-19T10:02:39;13.60;99.90
65046;DHT22;54657;52.022;5.534;2023-11-19T10:05:07;13.60;99.90
65046;DHT22;54657;52.022;5.534;2023-11-19T10:07:35;13.70;99.90
65046;DHT22;54657;52.022;5.534;2023-11-19T10:10:04;13.70;99.80
65046;DHT22;54657;52.022;5.534;2023-11-19T10:12:30;13.70;99.80
65046;DHT22;54657;52.022;5.534;2023-11-19T10:14:57;13.70;99.60
65046;DHT22;54657;52.022;5.534;2023-11-19T10:17:28;13.70;99.80
65046;DHT22;54657;52.022;5.534;2023-11-19T10:19:55;13.70;99.80
65046;DHT22;54657;52.022;5.534;2023-11-19T10:22:22;13.70;99.90
65046;DHT22;54657;52.022;5.534;2023-11-19T10:24:48;13.70;99.70
65046;DHT22;54657;52.022;5.534;2023-11-19T10:27:14;13.70;99.80
65046;DHT22;54657;52.022;5.534;2023-11-19T10:29:40;13.70;99.70
65046;DHT22;54657;52.022;5.534;2023-11-19T10:32:05;13.70;99.70
65046;DHT22;54657;52.022;5.534;2023-11-19T10:34:31;13.80;99.70
65046;DHT22;54657;52.022;5.534;2023-11-19T10:36:57;13.80;99.50
65046;DHT22;54657;52.022;5.534;2023-11-19T10:39:23;13.80;99.50
65046;DHT22;54657;52.022;5.534;2023-11-19T10:41:49;13.90;99.40
65046;DHT22;54657;52.022;5.534;2023-11-19T10:44:43;13.90;99.40
65046;DHT22;54657;52.022;5.534;2023-11-19T10:47:10;13.90;98.40
65046;DHT22;54657;52.022;5.534;2023-11-19T10:49:37;14.00;99.30
65046;DHT22;54657;52.022;5.534;2023-11-19T10:52:05;14.00;99.00
65046;DHT22;54657;52.022;5.534;2023-11-19T10:54:34;14.10;99.00
65046;DHT22;54657;52.022;5.534;2023-11-19T10:57:02;14.10;99.00
65046;DHT22;54657;52.022;5.534;2023-11-19T10:59:31;14.10;99.00
65046;DHT22;54657;52.022;5.534;2023-11-19T11:07:05;14.20;98.80
65046;DHT22;54657;52.022;5.534;2023-11-19T11:09:32;14.20;98.80
65046;DHT22;54657;52.022;5.534;2023-11-19T11:11:59;14.30;98.80
65046;DHT22;54657;52.022;5.534;2023-11-19T11:14:25;14.20;98.70
65046;DHT22;54657;52.022;5.534;2023-11-19T11:16:53;14.30;98.80
65046;DHT22;54657;52.022;5.534;2023-11-19T11:19:19;14.30;98.60
65046;DHT22;54657;52.022;5.534;2023-11-19T11:21:52;14.20;98.70
65046;DHT22;54657;52.022;5.534;2023-11-19T11:35:30;14.30;98.20
65046;DHT22;54657;52.022;5.534;2023-11-19T11:38:03;14.30;98.90
65046;DHT22;54657;52.022;5.534;2023-11-19T11:40:29;14.40;98.50
65046;DHT22;54657;52.022;5.534;2023-11-19T11:42:55;14.30;97.60
65046;DHT22;54657;52.022;5.534;2023-11-19T11:45:36;14.30;98.80
65046;DHT22;54657;52.022;5.534;2023-11-19T11:48:09;14.30;98.00
65046;DHT22;54657;52.022;5.534;2023-11-19T11:50:46;14.30;98.80
65046;DHT22;54657;52.022;5.534;2023-11-19T11:53:16;14.30;98.70
65046;DHT22;54657;52.022;5.534;2023-11-19T11:58:13;14.30;98.80
65046;DHT22;54657;52.022;5.534;2023-11-19T12:00:40;14.30;98.70
65046;DHT22;54657;52.022;5.534;2023-11-19T12:03:07;14.20;98.50
65046;DHT22;54657;52.022;5.534;2023-11-19T12:05:39;14.20;98.60
65046;DHT22;54657;52.022;5.534;2023-11-19T12:08:06;14.20;98.40
65046;DHT22;54657;52.022;5.534;2023-11-19T12:10:38;14.20;98.90
65046;DHT22;54657;52.022;5.534;2023-11-19T12:13:09;14.30;98.50
65046;DHT22;54657;52.022;5.534;2023-11-19T12:18:27;14.30;97.80
65046;DHT22;54657;52.022;5.534;2023-11-19T12:20:54;14.30;98.30
65046;DHT22;54657;52.022;5.534;2023-11-19T12:23:20;14.30;98.30
65046;DHT22;54657;52.022;5.534;2023-11-19T12:25:46;14.30;98.10
65046;DHT22;54657;52.022;5.534;2023-11-19T12:28:13;14.30;98.30
65046;DHT22;54657;52.022;5.534;2023-11-19T12:30:39;14.40;98.10
65046;DHT22;54657;52.022;5.534;2023-11-19T12:33:08;14.30;98.20
65046;DHT22;54657;52.022;5.534;2023-11-19T12:35:44;14.30;98.10
65046;DHT22;54657;52.022;5.534;2023-11-19T12:38:21;14.30;98.00
65046;DHT22;54657;52.022;5.534;2023-11-19T12:40:47;14.40;98.00
65046;DHT22;54657;52.022;5.534;2023-11-19T12:43:21;14.40;98.00
65046;DHT22;54657;52.022;5.534;2023-11-19T12:45:50;14.40;97.80
65046;DHT22;54657;52.022;5.534;2023-11-19T12:48:15;14.40;98.10
65046;DHT22;54657;52.022;5.534;2023-11-19T12:50:55;14.40;98.10
65046;DHT22;54657;52.022;5.534;2023-11-19T12:53:22;14.50;97.40
65046;DHT22;54657;52.022;5.534;2023-11-19T12:55:48;14.50;97.90
65046;DHT22;54657;52.022;5.534;2023-11-19T12:58:33;14.50;97.80
65046;DHT22;54657;52.022;5.534;2023-11-19T13:01:04;14.50;97.00
65046;DHT22;54657;52.022;5.534;2023-11-19T13:03:31;14.50;97.70
65046;DHT22;54657;52.022;5.534;2023-11-19T13:06:04;14.60;97.90
65046;DHT22;54657;52.022;5.534;2023-11-19T13:08:47;14.60;97.70
65046;DHT22;54657;52.022;5.534;2023-11-19T13:11:35;14.60;97.20
65046;DHT22;54657;52.022;5.534;2023-11-19T13:14:05;14.50;97.60
65046;DHT22;54657;52.022;5.534;2023-11-19T13:16:35;14.50;97.90
65046;DHT22;54657;52.022;5.534;2023-11-19T13:19:01;14.50;97.70
65046;DHT22;54657;52.022;5.534;2023-11-19T13:21:27;14.50;97.80
65046;DHT22;54657;52.022;5.534;2023-11-19T13:23:52;14.40;97.90
65046;DHT22;54657;52.022;5.534;2023-11-19T13:26:18;14.40;97.90
65046;DHT22;54657;52.022;5.534;2023-11-19T13:28:43;14.40;98.00
65046;DHT22;54657;52.022;5.534;2023-11-19T13:31:09;14.40;98.00
65046;DHT22;54657;52.022;5.534;2023-11-19T13:33:35;14.40;98.10
65046;DHT22;54657;52.022;5.534;2023-11-19T13:36:02;14.40;98.10
65046;DHT22;54657;52.022;5.534;2023-11-19T13:38:34;14.30;98.20
65046;DHT22;54657;52.022;5.534;2023-11-19T13:41:01;14.30;98.10
65046;DHT22;54657;52.022;5.534;2023-11-19T13:43:27;14.30;98.40
65046;DHT22;54657;52.022;5.534;2023-11-19T13:45:56;14.10;98.50
65046;DHT22;54657;52.022;5.534;2023-11-19T13:48:29;14.20;98.70
65046;DHT22;54657;52.022;5.534;2023-11-19T13:50:56;14.00;98.70
65046;DHT22;54657;52.022;5.534;2023-11-19T13:53:23;14.00;99.00
65046;DHT22;54657;52.022;5.534;2023-11-19T13:55:51;13.90;99.20
65046;DHT22;54657;52.022;5.534;2023-11-19T13:58:18;13.90;99.40
65046;DHT22;54657;52.022;5.534;2023-11-19T14:00:43;13.80;99.30
65046;DHT22;54657;52.022;5.534;2023-11-19T14:03:09;13.80;99.30
65046;DHT22;54657;52.022;5.534;2023-11-19T14:05:38;13.80;99.40
65046;DHT22;54657;52.022;5.534;2023-11-19T14:08:05;13.80;99.50
65046;DHT22;54657;52.022;5.534;2023-11-19T14:10:37;13.80;99.60
65046;DHT22;54657;52.022;5.534;2023-11-19T14:13:04;13.80;99.60
65046;DHT22;54657;52.022;5.534;2023-11-19T14:15:30;13.80;99.60
65046;DHT22;54657;52.022;5.534;2023-11-19T14:17:55;13.90;99.60
65046;DHT22;54657;52.022;5.534;2023-11-19T14:20:21;13.90;99.60
65046;DHT22;54657;52.022;5.534;2023-11-19T14:22:46;13.90;99.60
65046;DHT22;54657;52.022;5.534;2023-11-19T14:25:14;13.90;99.50
65046;DHT22;54657;52.022;5.534;2023-11-19T14:27:42;13.90;99.30
65046;DHT22;54657;52.022;5.534;2023-11-19T14:30:10;13.90;99.30
65046;DHT22;54657;52.022;5.534;2023-11-19T14:32:37;13.90;99.20
65046;DHT22;54657;52.022;5.534;2023-11-19T14:35:04;14.00;99.10
65046;DHT22;54657;52.022;5.534;2023-11-19T14:37:30;13.90;98.80
65046;DHT22;54657;52.022;5.534;2023-11-19T14:39:59;13.90;98.80
65046;DHT22;54657;52.022;5.534;2023-11-19T14:42:25;13.90;98.70
65046;DHT22;54657;52.022;5.534;2023-11-19T14:44:51;13.90;98.80
65046;DHT22;54657;52.022;5.534;2023-11-19T14:47:21;13.80;98.70
65046;DHT22;54657;52.022;5.534;2023-11-19T14:49:46;13.90;98.70
65046;DHT22;54657;52.022;5.534;2023-11-19T14:52:12;13.80;98.60
65046;DHT22;54657;52.022;5.534;2023-11-19T14:54:38;13.80;98.70
65046;DHT22;54657;52.022;5.534;2023-11-19T14:57:04;13.80;98.60
65046;DHT22;54657;52.022;5.534;2023-11-19T14:59:30;13.80;98.70
65046;DHT22;54657;52.022;5.534;2023-11-19T15:01:55;13.80;98.70
65046;DHT22;54657;52.022;5.534;2023-11-19T15:04:21;13.80;98.70
65046;DHT22;54657;52.022;5.534;2023-11-19T15:06:46;13.70;98.60
65046;DHT22;54657;52.022;5.534;2023-11-19T15:09:12;13.70;98.60
65046;DHT22;54657;52.022;5.534;2023-11-19T15:11:45;13.70;98.60
65046;DHT22;54657;52.022;5.534;2023-11-19T15:14:14;13.70;98.50
65046;DHT22;54657;52.022;5.534;2023-11-19T15:16:42;13.70;98.50
65046;DHT22;54657;52.022;5.534;2023-11-19T15:19:08;13.70;98.40
65046;DHT22;54657;52.022;5.534;2023-11-19T15:21:34;13.70;98.40
65046;DHT22;54657;52.022;5.534;2023-11-19T15:24:00;13.70;98.40
65046;DHT22;54657;52.022;5.534;2023-11-19T15:26:26;13.70;98.50
65046;DHT22;54657;52.022;5.534;2023-11-19T15:28:51;13.70;98.40
65046;DHT22;54657;52.022;5.534;2023-11-19T15:31:22;13.70;98.40
65046;DHT22;54657;52.022;5.534;2023-11-19T15:33:47;13.70;98.40
65046;DHT22;54657;52.022;5.534;2023-11-19T15:36:13;13.70;98.40
65046;DHT22;54657;52.022;5.534;2023-11-19T15:38:40;13.70;98.40
65046;DHT22;54657;52.022;5.534;2023-11-19T15:41:05;13.70;98.40
65046;DHT22;54657;52.022;5.534;2023-11-19T15:43:33;13.70;98.50
65046;DHT22;54657;52.022;5.534;2023-11-19T15:45:58;13.70;98.50
65046;DHT22;54657;52.022;5.534;2023-11-19T15:48:24;13.70;98.60
65046;DHT22;54657;52.022;5.534;2023-11-19T15:50:51;13.70;98.50
65046;DHT22;54657;52.022;5.534;2023-11-19T15:53:17;13.70;98.50